Portada
METAR-TAF:

METAR-TAF

Aeroports :

Los Alamitos Army Airfield

Los Alamitos, Califòrnia, Estats Units d'Amèrica

latitud: 33-47N, longitud: 118-03W, altitud: 11 m

Observació

L'informe es va fer fa 36 minuts, a les 06:55 UTC
Vent 3 kt del Oest/Sud-Oest
Temperatura 20°C
Humitat 78%
Pressió 1011 hPa
Visibilitat: 12.9 km
Cel clar

METAR: KSLI 230655Z AUTO 25003KT 8SM CLR 20/16 A2984 RMK AO2 SLP108 T02000156

Hora: 00:31 (07:31 UTC)

Pronòstic

L'informe es va fer fa 2 hores i 31 minuts, a les 05:00 UTC
Pronòstic vàlid del 23 a les 05 UTC al 24 a les 11 UTC
Vent 6 kt amb direcció variable
Visibilitat 10 km o més
Escasses núvols a una alçada de 10000 ft

TAF: KSLI 230500Z 2305/2411 VRB06KT 9999 FEW100 QNH2983INS TX29/2400Z TN18/2313Z

Observacions i pronòstics meteorològics de més de 4000 aeroports (METAR i TAF).

Les estacions disponibles són els punts grocs i vermells al mapa.

Posi el ratolí al punt desitjat per veure el nom de l'estació.

Feu clic per veure les observacions i els pronòstics meteorològics.

Per canviar el mapa: feu clic els botons verds amb una creu de color negre per apropar; al botó verd amb un guió per allunyar la imatge; o en les fletxes verdes per a mapes adjacents.


METAR-TAF: